createdAt,value
2023-05-03T00:01:34.057Z,102056.47
2023-05-03T00:04:00.529Z,102057.91
2023-05-03T00:06:27.120Z,102058.47
2023-05-03T00:08:53.806Z,102057.44
2023-05-03T00:11:21.178Z,102056.84
2023-05-03T00:13:47.676Z,102058.56
2023-05-03T00:16:14.308Z,102058.50
2023-05-03T00:18:40.842Z,102058.56
2023-05-03T00:21:07.490Z,102064.56
2023-05-03T00:23:34.327Z,102060.31
2023-05-03T00:26:00.806Z,102053.91
2023-05-03T00:28:27.382Z,102066.53
2023-05-03T00:30:54.122Z,102059.34
2023-05-03T00:33:21.478Z,102059.53
2023-05-03T00:35:47.897Z,102060.56
2023-05-03T00:38:15.419Z,102050.38
2023-05-03T00:40:41.949Z,102058.63
2023-05-03T00:43:11.671Z,102059.31
2023-05-03T00:45:38.449Z,102058.31
2023-05-03T00:48:05.143Z,102062.69
2023-05-03T00:50:31.709Z,102054.69
2023-05-03T00:52:58.476Z,102056.22
2023-05-03T00:55:26.279Z,102053.19
2023-05-03T00:57:52.785Z,102054.69
2023-05-03T01:00:20.360Z,102048.59
2023-05-03T01:02:47.102Z,102049.00
2023-05-03T01:09:17.503Z,102058.78
2023-05-03T01:12:08.516Z,102052.69
2023-05-03T01:15:01.153Z,102059.31
2023-05-03T01:17:34.757Z,102051.63
2023-05-03T01:20:08.192Z,102051.00
2023-05-03T01:22:49.457Z,102057.19
2023-05-03T01:25:16.485Z,102058.19
2023-05-03T01:27:43.372Z,102072.78
2023-05-03T01:30:12.477Z,102066.72
2023-05-03T01:32:57.272Z,102061.59
2023-05-03T01:35:33.103Z,102068.78
2023-05-03T01:38:00.597Z,102062.63
2023-05-03T01:40:29.150Z,102064.53
2023-05-03T01:42:57.078Z,102059.28
2023-05-03T01:45:23.741Z,102069.34
2023-05-03T01:47:50.236Z,102068.28
2023-05-03T01:50:16.785Z,102067.97
2023-05-03T01:52:44.962Z,102062.66
2023-05-03T01:55:11.735Z,102067.16
2023-05-03T01:57:38.267Z,102070.94
2023-05-03T02:00:05.701Z,102063.22
2023-05-03T02:02:32.550Z,102069.56
2023-05-03T02:04:59.037Z,102069.72
2023-05-03T02:07:25.955Z,102065.59
2023-05-03T02:09:52.412Z,102068.38
2023-05-03T02:12:18.845Z,102062.44
2023-05-03T02:14:45.453Z,102069.31
2023-05-03T02:17:11.965Z,102065.25
2023-05-03T02:19:38.450Z,102070.84
2023-05-03T02:22:04.873Z,102073.59
2023-05-03T02:24:31.713Z,102077.84
2023-05-03T02:26:58.127Z,102076.84
2023-05-03T02:29:24.705Z,102080.94
2023-05-03T02:31:51.230Z,102084.38
2023-05-03T02:34:17.653Z,102082.72
2023-05-03T02:36:44.348Z,102082.03
2023-05-03T02:39:11.183Z,102095.56
2023-05-03T02:41:37.788Z,102095.06
2023-05-03T02:44:04.319Z,102091.53
2023-05-03T02:46:31.174Z,102088.97
2023-05-03T02:48:57.714Z,102089.06
2023-05-03T02:51:24.256Z,102091.72
2023-05-03T02:53:50.752Z,102094.78
2023-05-03T02:56:17.471Z,102094.94
2023-05-03T02:58:43.938Z,102092.44
2023-05-03T03:01:11.416Z,102103.75
2023-05-03T03:03:38.049Z,102105.56
2023-05-03T03:06:04.799Z,102103.28
2023-05-03T03:08:31.288Z,102106.81
2023-05-03T03:10:57.804Z,102103.47
2023-05-03T03:13:24.370Z,102106.81
2023-05-03T03:15:50.858Z,102105.19
2023-05-03T03:18:19.034Z,102106.19
2023-05-03T03:20:46.304Z,102101.41
2023-05-03T03:23:12.805Z,102108.00
2023-05-03T03:25:39.482Z,102114.31
2023-05-03T03:28:05.913Z,102112.75
2023-05-03T03:30:32.480Z,102118.31
2023-05-03T03:32:59.001Z,102124.63
2023-05-03T03:35:26.000Z,102121.72
2023-05-03T03:37:53.819Z,102126.03
2023-05-03T03:40:20.496Z,102125.41
2023-05-03T03:42:46.930Z,102131.63
2023-05-03T03:45:13.374Z,102125.56
2023-05-03T03:47:39.806Z,102127.84
2023-05-03T03:50:06.811Z,102136.34
2023-05-03T03:52:33.627Z,102135.69
2023-05-03T03:55:00.058Z,102137.59
2023-05-03T03:57:30.081Z,102139.28
2023-05-03T03:59:57.507Z,102146.16
2023-05-03T04:02:24.751Z,102148.03
2023-05-03T04:04:51.356Z,102143.03
2023-05-03T04:07:17.901Z,102149.50
2023-05-03T04:09:44.599Z,102149.34
2023-05-03T04:12:11.463Z,102155.22
2023-05-03T04:14:37.959Z,102150.91
2023-05-03T04:17:04.743Z,102152.66
2023-05-03T04:19:32.261Z,102155.91
2023-05-03T04:21:58.786Z,102161.38
2023-05-03T04:24:25.266Z,102163.31
2023-05-03T04:26:51.854Z,102164.56
2023-05-03T04:29:19.946Z,102172.47
2023-05-03T04:31:46.997Z,102180.88
2023-05-03T04:34:15.994Z,102185.94
2023-05-03T04:36:42.893Z,102188.81
2023-05-03T04:39:11.605Z,102181.44
2023-05-03T04:41:38.048Z,102176.69
2023-05-03T04:44:05.842Z,102189.88
2023-05-03T04:46:32.479Z,102180.66
2023-05-03T04:48:59.001Z,102188.91
2023-05-03T04:51:25.570Z,102181.88
2023-05-03T04:53:51.981Z,102189.44
2023-05-03T04:56:20.526Z,102195.53
2023-05-03T04:58:47.103Z,102200.44
2023-05-03T05:01:14.310Z,102199.31
2023-05-03T05:03:40.888Z,102202.97
2023-05-03T05:06:09.827Z,102206.44
2023-05-03T05:08:36.635Z,102199.03
2023-05-03T05:11:06.286Z,102205.25
2023-05-03T05:13:32.807Z,102198.50
2023-05-03T05:15:59.375Z,102198.00
2023-05-03T05:18:26.081Z,102205.63
2023-05-03T05:20:52.604Z,102206.81
2023-05-03T05:23:19.467Z,102200.66
2023-05-03T05:25:46.150Z,102209.06
2023-05-03T05:28:12.567Z,102209.41
2023-05-03T05:30:39.125Z,102209.41
2023-05-03T05:33:05.971Z,102213.59
2023-05-03T05:35:33.821Z,102217.13
2023-05-03T05:38:00.370Z,102220.56
2023-05-03T05:40:26.905Z,102219.97
2023-05-03T05:42:53.484Z,102229.81
2023-05-03T05:45:19.969Z,102229.75
2023-05-03T05:47:46.849Z,102225.44
2023-05-03T05:50:18.323Z,102227.47
2023-05-03T05:52:45.345Z,102219.19
2023-05-03T05:55:14.622Z,102228.09
2023-05-03T05:57:41.156Z,102234.28
2023-05-03T06:00:14.643Z,102229.81
2023-05-03T06:02:42.260Z,102235.72
2023-05-03T06:05:09.385Z,102232.44
2023-05-03T06:07:36.641Z,102232.78
2023-05-03T06:10:04.564Z,102238.41
2023-05-03T06:12:31.508Z,102238.78
2023-05-03T06:15:02.901Z,102245.03
2023-05-03T06:17:29.751Z,102234.34
2023-05-03T06:19:57.124Z,102244.38
2023-05-03T06:22:23.704Z,102242.59
2023-05-03T06:24:50.651Z,102244.72
2023-05-03T06:27:17.401Z,102255.41
2023-05-03T06:29:44.734Z,102254.75
2023-05-03T06:32:11.163Z,102255.22
2023-05-03T06:34:37.963Z,102260.53
2023-05-03T06:37:04.587Z,102253.78
2023-05-03T06:39:31.147Z,102251.53
2023-05-03T06:41:57.630Z,102250.69
2023-05-03T06:44:24.091Z,102252.28
2023-05-03T06:46:51.398Z,102252.28
2023-05-03T06:49:18.188Z,102262.53
2023-05-03T06:51:44.674Z,102253.31
2023-05-03T06:54:11.176Z,102256.75
2023-05-03T06:56:37.741Z,102253.81
2023-05-03T06:59:04.470Z,102255.38
2023-05-03T07:01:32.113Z,102250.78
2023-05-03T07:03:58.764Z,102254.81
2023-05-03T07:06:25.395Z,102250.91
2023-05-03T07:08:52.687Z,102250.81
2023-05-03T07:11:23.734Z,102260.97
2023-05-03T07:13:51.494Z,102261.81
2023-05-03T07:16:19.119Z,102258.59
2023-05-03T07:18:46.650Z,102255.22
2023-05-03T07:21:13.665Z,102247.19
2023-05-03T07:23:40.724Z,102252.94
2023-05-03T07:26:08.165Z,102244.91
2023-05-03T07:28:34.666Z,102250.00
2023-05-03T07:31:03.433Z,102245.03
2023-05-03T07:33:30.626Z,102248.75
2023-05-03T07:35:57.176Z,102241.72
2023-05-03T07:38:23.617Z,102251.34
2023-05-03T07:40:50.306Z,102249.22
2023-05-03T07:43:21.235Z,102243.75
2023-05-03T07:45:47.864Z,102241.63
2023-05-03T07:48:14.409Z,102240.88
2023-05-03T07:50:44.259Z,102240.16
2023-05-03T07:53:12.273Z,102232.03
2023-05-03T07:55:38.973Z,102237.94
2023-05-03T07:58:05.501Z,102243.19
2023-05-03T08:00:32.073Z,102238.00
2023-05-03T08:02:58.673Z,102234.88
2023-05-03T08:05:25.542Z,102231.22
2023-05-03T08:07:52.684Z,102233.47
2023-05-03T08:10:19.427Z,102235.16
2023-05-03T08:12:46.555Z,102225.84
2023-05-03T08:15:13.234Z,102232.06
2023-05-03T08:17:45.443Z,102219.91
2023-05-03T08:20:13.413Z,102225.16
2023-05-03T08:22:41.309Z,102227.63
2023-05-03T08:25:08.215Z,102222.13
2023-05-03T08:27:34.723Z,102220.63
2023-05-03T08:30:01.902Z,102220.03
2023-05-03T08:32:29.723Z,102224.22
2023-05-03T08:34:56.830Z,102222.72
2023-05-03T08:37:23.678Z,102220.34
2023-05-03T08:39:50.226Z,102218.22
2023-05-03T08:42:17.050Z,102214.63
2023-05-03T08:44:48.491Z,102221.28
2023-05-03T08:47:16.996Z,102217.25
2023-05-03T08:49:44.606Z,102226.25
2023-05-03T08:52:14.105Z,102230.69
2023-05-03T08:54:41.538Z,102228.22
2023-05-03T08:57:13.645Z,102223.03
2023-05-03T08:59:47.631Z,102227.94
2023-05-03T09:02:15.925Z,102230.63
2023-05-03T09:04:42.815Z,102232.72
2023-05-03T09:07:13.370Z,102230.00
2023-05-03T09:09:39.911Z,102231.66
2023-05-03T09:12:06.546Z,102231.94
2023-05-03T09:14:43.308Z,102233.06
2023-05-03T09:17:21.493Z,102235.09
2023-05-03T09:19:53.144Z,102228.16
2023-05-03T09:22:20.316Z,102222.25
2023-05-03T09:24:54.415Z,102228.66
2023-05-03T09:27:21.590Z,102233.41
2023-05-03T09:29:48.873Z,102232.59
2023-05-03T09:32:16.118Z,102234.25
2023-05-03T09:34:43.443Z,102228.91
2023-05-03T09:37:10.495Z,102233.28
2023-05-03T09:39:37.070Z,102221.53
2023-05-03T09:42:14.724Z,102217.09
2023-05-03T09:44:55.533Z,102220.00
2023-05-03T09:47:24.563Z,102226.72
2023-05-03T09:49:51.144Z,102217.88
2023-05-03T09:52:17.763Z,102222.78
2023-05-03T09:54:44.894Z,102225.81
2023-05-03T09:57:14.641Z,102216.38
2023-05-03T09:59:42.193Z,102224.13
2023-05-03T10:02:08.886Z,102221.66
2023-05-03T10:04:57.229Z,102215.59
2023-05-03T10:07:28.405Z,102211.41
2023-05-03T10:09:58.036Z,102216.44
2023-05-03T10:12:26.310Z,102216.91
2023-05-03T10:14:54.953Z,102212.81
2023-05-03T10:17:46.177Z,102214.00
2023-05-03T10:20:23.789Z,102209.03
2023-05-03T10:23:06.003Z,102207.97
2023-05-03T10:25:34.511Z,102203.25
2023-05-03T10:28:08.240Z,102209.88
2023-05-03T10:30:39.530Z,102209.97
2023-05-03T10:33:14.856Z,102210.72
2023-05-03T10:35:54.700Z,102206.22
2023-05-03T10:38:23.843Z,102202.06
2023-05-03T10:40:51.071Z,102194.94
2023-05-03T10:43:29.661Z,102200.81
2023-05-03T10:46:03.513Z,102195.28
2023-05-03T10:48:31.285Z,102191.59
2023-05-03T10:51:18.687Z,102202.66
2023-05-03T10:53:45.153Z,102193.53
2023-05-03T10:56:15.666Z,102190.09
2023-05-03T10:58:44.748Z,102186.91
2023-05-03T11:01:13.368Z,102187.75
2023-05-03T11:03:51.587Z,102189.00
2023-05-03T11:06:28.104Z,102183.25
2023-05-03T11:08:54.686Z,102187.91
2023-05-03T11:11:22.104Z,102187.50
2023-05-03T11:13:50.902Z,102181.94
2023-05-03T11:16:17.793Z,102181.41
2023-05-03T11:18:45.346Z,102181.88
2023-05-03T11:21:12.901Z,102187.13
2023-05-03T11:23:39.800Z,102182.28
2023-05-03T11:26:06.698Z,102181.56
2023-05-03T11:28:33.158Z,102183.59
2023-05-03T11:31:02.163Z,102176.06
2023-05-03T11:33:31.968Z,102169.22
2023-05-03T11:35:58.474Z,102175.13
2023-05-03T11:38:25.146Z,102172.56
2023-05-03T11:40:51.665Z,102162.13
2023-05-03T11:43:18.133Z,102158.88
2023-05-03T11:45:46.393Z,102172.13
2023-05-03T11:48:13.855Z,102171.63
2023-05-03T11:50:58.494Z,102171.56
2023-05-03T11:53:26.372Z,102161.94
2023-05-03T11:55:54.273Z,102157.94
2023-05-03T11:58:26.402Z,102156.00
2023-05-03T12:00:57.135Z,102151.72
2023-05-03T12:03:30.467Z,102159.03
2023-05-03T12:05:58.889Z,102162.34
2023-05-03T12:08:31.910Z,102155.94
2023-05-03T12:11:02.868Z,102160.75
2023-05-03T12:13:39.700Z,102164.19
2023-05-03T12:16:13.684Z,102162.19
2023-05-03T12:19:02.130Z,102158.94
2023-05-03T12:21:58.825Z,102149.56
2023-05-03T12:24:35.419Z,102153.53
2023-05-03T12:27:03.242Z,102155.03
2023-05-03T12:29:34.673Z,102152.78
2023-05-03T12:32:03.446Z,102146.84
2023-05-03T12:34:34.731Z,102146.59
2023-05-03T12:37:04.842Z,102146.88
2023-05-03T12:39:32.893Z,102140.94
2023-05-03T12:44:31.282Z,102146.94
2023-05-03T12:47:02.003Z,102139.88
2023-05-03T12:49:28.955Z,102151.03
2023-05-03T12:52:11.343Z,102148.31
2023-05-03T12:54:48.920Z,102140.81
2023-05-03T12:57:22.059Z,102137.63
2023-05-03T12:59:53.984Z,102128.91
2023-05-03T13:04:59.701Z,102132.38
2023-05-03T13:07:30.182Z,102134.41
2023-05-03T13:12:28.346Z,102125.75
2023-05-03T13:14:55.389Z,102123.75
2023-05-03T13:17:23.222Z,102124.63
2023-05-03T13:19:51.359Z,102113.56
2023-05-03T13:22:18.213Z,102114.97
2023-05-03T13:24:45.984Z,102106.75
2023-05-03T13:27:12.806Z,102107.78
2023-05-03T13:29:39.979Z,102098.56
2023-05-03T13:32:08.079Z,102101.94
2023-05-03T13:34:35.165Z,102101.00
2023-05-03T13:37:02.687Z,102093.34
2023-05-03T13:39:29.299Z,102094.03
2023-05-03T13:41:55.896Z,102092.63
2023-05-03T13:44:25.334Z,102088.81
2023-05-03T13:46:56.318Z,102082.25
2023-05-03T13:49:22.847Z,102083.13
2023-05-03T13:51:49.378Z,102073.22
2023-05-03T13:54:15.853Z,102067.84
2023-05-03T13:56:43.201Z,102071.81
2023-05-03T13:59:12.302Z,102069.16
2023-05-03T14:01:39.327Z,102067.31
2023-05-03T14:04:06.110Z,102069.50
2023-05-03T14:06:33.593Z,102066.06
2023-05-03T14:09:01.628Z,102064.53
2023-05-03T14:11:29.766Z,102067.25
2023-05-03T14:13:57.526Z,102061.31
2023-05-03T14:16:40.042Z,102063.00
2023-05-03T14:19:10.159Z,102055.19
2023-05-03T14:21:37.137Z,102064.41
2023-05-03T14:24:03.857Z,102058.50
2023-05-03T14:26:30.424Z,102056.81
2023-05-03T14:28:59.344Z,102052.31
2023-05-03T14:31:26.121Z,102055.00
2023-05-03T14:33:53.114Z,102054.13
2023-05-03T14:36:19.632Z,102044.72
2023-05-03T14:38:46.379Z,102040.19
2023-05-03T14:41:13.328Z,102039.09
2023-05-03T14:43:39.771Z,102044.75
2023-05-03T14:46:06.229Z,102041.56
2023-05-03T14:48:32.652Z,102046.66
2023-05-03T14:50:59.361Z,102047.53
2023-05-03T14:53:25.945Z,102043.88
2023-05-03T14:55:53.757Z,102036.28
2023-05-03T14:58:20.242Z,102036.50
2023-05-03T15:00:46.733Z,102041.88
2023-05-03T15:03:13.729Z,102034.94
2023-05-03T15:05:58.575Z,102039.03
2023-05-03T15:08:25.267Z,102040.16
2023-05-03T15:10:52.427Z,102043.13
2023-05-03T15:13:19.194Z,102045.56
2023-05-03T15:15:46.045Z,102038.91
2023-05-03T15:18:14.459Z,102038.56
2023-05-03T15:20:41.204Z,102039.38
2023-05-03T15:23:07.805Z,102040.41
2023-05-03T15:25:34.279Z,102038.09
2023-05-03T15:28:04.181Z,102038.69
2023-05-03T15:30:32.923Z,102029.72
2023-05-03T15:32:59.962Z,102022.81
2023-05-03T15:35:27.270Z,102019.88
2023-05-03T15:37:54.101Z,102018.16
2023-05-03T15:40:23.676Z,102030.94
2023-05-03T15:42:51.879Z,102033.28
2023-05-03T15:45:19.464Z,102035.56
2023-05-03T15:47:46.206Z,102017.28
2023-05-03T15:50:12.935Z,102023.69
2023-05-03T15:52:39.481Z,102015.31
2023-05-03T15:55:06.773Z,102013.78
2023-05-03T15:57:33.350Z,102025.94
2023-05-03T15:59:59.810Z,102018.91
2023-05-03T16:02:26.287Z,102017.19
2023-05-03T16:04:52.814Z,102010.38
2023-05-03T16:07:19.390Z,102010.94
2023-05-03T16:09:46.580Z,102005.47
2023-05-03T16:12:13.078Z,102009.56
2023-05-03T16:14:39.883Z,102003.19
2023-05-03T16:17:06.367Z,102005.72
2023-05-03T16:19:32.921Z,102004.41
2023-05-03T16:21:59.475Z,102000.16
2023-05-03T16:24:26.355Z,102005.16
2023-05-03T16:26:53.028Z,102001.88
2023-05-03T16:29:19.771Z,102000.59
2023-05-03T16:31:46.952Z,101992.44
2023-05-03T16:34:14.295Z,101998.31
2023-05-03T16:36:43.281Z,101999.50
2023-05-03T16:39:13.824Z,102005.47
2023-05-03T16:41:41.341Z,102001.03
2023-05-03T16:44:09.253Z,101993.28
2023-05-03T16:46:37.118Z,101995.50
2023-05-03T16:49:05.041Z,101997.78
2023-05-03T16:51:32.228Z,101994.06
2023-05-03T16:53:59.814Z,102000.88
2023-05-03T16:56:27.775Z,101997.88
2023-05-03T16:58:54.350Z,101996.03
2023-05-03T17:01:22.042Z,101991.06
2023-05-03T17:03:48.897Z,101988.66
2023-05-03T17:06:16.025Z,101997.81
2023-05-03T17:08:42.773Z,101991.88
2023-05-03T17:11:12.453Z,101990.09
2023-05-03T17:13:39.253Z,101996.28
2023-05-03T17:16:10.857Z,101995.75
2023-05-03T17:18:38.570Z,102004.13
2023-05-03T17:21:05.661Z,102002.44
2023-05-03T17:23:36.190Z,101996.47
2023-05-03T17:26:04.125Z,102000.09
2023-05-03T17:28:31.729Z,102007.91
2023-05-03T17:30:59.390Z,102007.56
2023-05-03T17:33:26.466Z,101998.72
2023-05-03T17:35:54.033Z,101999.13
2023-05-03T17:38:20.627Z,101997.28
2023-05-03T17:40:47.476Z,101995.41
2023-05-03T17:43:17.362Z,102001.34
2023-05-03T17:45:45.166Z,102000.13
2023-05-03T17:48:14.763Z,101999.44
2023-05-03T17:50:46.268Z,101994.66
2023-05-03T17:53:12.852Z,102003.41
2023-05-03T17:55:39.373Z,102000.72
2023-05-03T17:58:06.409Z,102002.44
2023-05-03T18:00:33.481Z,102008.06
2023-05-03T18:03:00.242Z,101998.31
2023-05-03T18:05:27.589Z,101999.88
2023-05-03T18:07:54.207Z,102009.28
2023-05-03T18:10:21.111Z,102010.53
2023-05-03T18:12:47.745Z,102004.22
2023-05-03T18:15:15.501Z,102005.22
2023-05-03T18:17:42.804Z,102007.78
2023-05-03T18:20:10.098Z,102011.91
2023-05-03T18:22:37.600Z,102010.47
2023-05-03T18:25:07.441Z,102022.06
2023-05-03T18:27:37.363Z,102020.25
2023-05-03T18:30:06.735Z,102019.28
2023-05-03T18:32:34.101Z,102025.75
2023-05-03T18:35:01.019Z,102014.31
2023-05-03T18:37:27.755Z,102021.59
2023-05-03T18:39:54.372Z,102015.41
2023-05-03T18:42:21.355Z,102015.88
2023-05-03T18:44:48.310Z,102013.13
2023-05-03T18:47:16.403Z,102019.44
2023-05-03T18:49:48.328Z,102029.44
2023-05-03T18:52:15.211Z,102028.69
2023-05-03T18:54:41.713Z,102032.47
2023-05-03T18:57:08.146Z,102024.09
2023-05-03T18:59:36.672Z,102033.59
2023-05-03T19:02:07.966Z,102032.09
2023-05-03T19:04:34.729Z,102038.94
2023-05-03T19:07:01.555Z,102040.38
2023-05-03T19:09:28.206Z,102038.44
2023-05-03T19:11:55.481Z,102042.31
2023-05-03T19:14:22.111Z,102046.09
2023-05-03T19:16:48.663Z,102044.69
2023-05-03T19:19:15.540Z,102043.44
2023-05-03T19:21:43.701Z,102053.69
2023-05-03T19:24:15.045Z,102051.94
2023-05-03T19:26:41.705Z,102050.78
2023-05-03T19:29:09.112Z,102047.13
2023-05-03T19:31:35.800Z,102050.94
2023-05-03T19:34:02.892Z,102045.59
2023-05-03T19:36:29.801Z,102047.78
2023-05-03T19:38:56.372Z,102049.31
2023-05-03T19:41:22.903Z,102043.00
2023-05-03T19:43:53.959Z,102040.56
2023-05-03T19:46:20.700Z,102037.88
2023-05-03T19:48:47.505Z,102039.56
2023-05-03T19:51:17.365Z,102045.50
2023-05-03T19:53:44.261Z,102034.19
2023-05-03T19:56:13.258Z,102038.78
2023-05-03T19:58:40.062Z,102036.94
2023-05-03T20:01:07.113Z,102043.41
2023-05-03T20:03:33.684Z,102038.59
2023-05-03T20:06:00.206Z,102040.34
2023-05-03T20:08:27.091Z,102038.09
2023-05-03T20:10:55.548Z,102037.34
2023-05-03T20:13:22.582Z,102033.44
2023-05-03T20:15:49.465Z,102037.66
2023-05-03T20:18:15.931Z,102038.59
2023-05-03T20:20:42.407Z,102041.41
2023-05-03T20:23:08.894Z,102041.63
2023-05-03T20:25:35.392Z,102036.94
2023-05-03T20:28:01.966Z,102039.59
2023-05-03T20:30:30.925Z,102041.34
2023-05-03T20:32:58.655Z,102040.72
2023-05-03T20:35:25.548Z,102046.28
2023-05-03T20:37:52.092Z,102041.22
2023-05-03T20:40:18.540Z,102041.28
2023-05-03T20:42:45.243Z,102047.78
2023-05-03T20:45:12.361Z,102047.66
2023-05-03T20:47:38.818Z,102049.28
2023-05-03T20:50:06.216Z,102044.91
2023-05-03T20:52:33.031Z,102047.47
2023-05-03T20:54:59.461Z,102058.56
2023-05-03T21:02:43.244Z,102048.00
2023-05-03T21:05:11.222Z,102045.47
2023-05-03T21:07:38.441Z,102051.13
2023-05-03T21:10:07.038Z,102046.94
2023-05-03T21:12:33.929Z,102042.03
2023-05-03T21:15:00.440Z,102042.78
2023-05-03T21:17:27.210Z,102037.66
2023-05-03T21:19:53.697Z,102035.97
2023-05-03T21:22:20.274Z,102038.84
2023-05-03T21:24:46.783Z,102044.31
2023-05-03T21:27:13.277Z,102041.41
2023-05-03T21:29:39.714Z,102033.91
2023-05-03T21:32:06.629Z,102038.19
2023-05-03T21:34:33.238Z,102032.22
2023-05-03T21:37:01.034Z,102032.44
2023-05-03T21:39:27.517Z,102038.44
2023-05-03T21:41:54.411Z,102034.78
2023-05-03T21:44:21.045Z,102040.00
2023-05-03T21:46:47.677Z,102032.75
2023-05-03T21:49:15.193Z,102035.53
2023-05-03T21:51:41.670Z,102037.34
2023-05-03T21:54:08.165Z,102031.00
2023-05-03T21:56:34.766Z,102033.06
2023-05-03T21:59:01.468Z,102034.03
2023-05-03T22:01:29.773Z,102033.38
2023-05-03T22:03:56.514Z,102028.06
2023-05-03T22:06:23.167Z,102024.81
2023-05-03T22:08:49.659Z,102030.81
2023-05-03T22:11:16.132Z,102031.22
2023-05-03T22:13:58.875Z,102028.22
2023-05-03T22:16:29.447Z,102026.84
2023-05-03T22:18:56.108Z,102025.00
2023-05-03T22:21:22.536Z,102025.31
2023-05-03T22:23:49.044Z,102022.13
2023-05-03T22:26:15.482Z,102018.81
2023-05-03T22:28:41.910Z,102024.78
2023-05-03T22:31:08.478Z,102016.47
2023-05-03T22:33:35.531Z,102018.59
2023-05-03T22:36:02.101Z,102023.41
2023-05-03T22:38:28.522Z,102019.97
2023-05-03T22:40:54.945Z,102018.81
2023-05-03T22:43:21.347Z,102017.63
2023-05-03T22:45:47.805Z,102022.00
2023-05-03T22:48:14.308Z,102018.88
2023-05-03T22:50:40.831Z,102017.91
2023-05-03T22:53:07.371Z,102022.59
2023-05-03T22:55:33.799Z,102021.25
2023-05-03T22:58:00.274Z,102022.00
2023-05-03T23:00:26.912Z,102018.38
2023-05-03T23:02:53.768Z,102021.03
2023-05-03T23:05:20.345Z,102024.59
2023-05-03T23:07:46.792Z,102018.47
2023-05-03T23:10:13.740Z,102023.69
2023-05-03T23:12:40.358Z,102025.72
2023-05-03T23:15:07.266Z,102017.06
2023-05-03T23:17:33.893Z,102013.47
2023-05-03T23:20:00.574Z,102022.41
2023-05-03T23:22:27.494Z,102017.50
2023-05-03T23:24:53.929Z,102019.72
2023-05-03T23:27:20.375Z,102018.50
2023-05-03T23:29:48.207Z,102013.38
2023-05-03T23:32:15.294Z,102021.47
2023-05-03T23:34:42.533Z,102014.53
2023-05-03T23:37:09.010Z,102021.38
2023-05-03T23:39:35.694Z,102010.28
2023-05-03T23:42:02.107Z,102011.75
2023-05-03T23:44:39.295Z,102010.44
2023-05-03T23:47:14.999Z,102002.50
2023-05-03T23:49:41.501Z,102008.03
2023-05-03T23:52:08.421Z,102011.00
2023-05-03T23:54:34.974Z,102011.97
2023-05-03T23:57:03.993Z,102008.44
2023-05-03T23:59:30.670Z,102008.91
